sensor_id;sensor_type;location;lat;lon;timestamp;temperature;humidity
5304;DHT22;2674;49.722;10.892;2022-11-15T00:02:00;6.70;99.90
5304;DHT22;2674;49.722;10.892;2022-11-15T00:04:26;6.70;99.90
5304;DHT22;2674;49.722;10.892;2022-11-15T00:06:52;6.60;99.90
5304;DHT22;2674;49.722;10.892;2022-11-15T00:09:18;6.70;99.90
5304;DHT22;2674;49.722;10.892;2022-11-15T00:11:44;6.60;99.90
5304;DHT22;2674;49.722;10.892;2022-11-15T00:14:10;6.70;99.90
5304;DHT22;2674;49.722;10.892;2022-11-15T00:16:35;6.70;99.90
5304;DHT22;2674;49.722;10.892;2022-11-15T00:19:02;6.70;99.90
5304;DHT22;2674;49.722;10.892;2022-11-15T00:21:28;6.70;99.90
5304;DHT22;2674;49.722;10.892;2022-11-15T00:23:54;6.60;99.90
5304;DHT22;2674;49.722;10.892;2022-11-15T00:26:20;6.60;99.90
5304;DHT22;2674;49.722;10.892;2022-11-15T00:28:45;6.60;99.90
5304;DHT22;2674;49.722;10.892;2022-11-15T00:31:13;6.60;99.90
5304;DHT22;2674;49.722;10.892;2022-11-15T00:33:39;6.60;99.90
5304;DHT22;2674;49.722;10.892;2022-11-15T00:36:09;6.60;99.90
5304;DHT22;2674;49.722;10.892;2022-11-15T00:38:36;6.60;99.90
5304;DHT22;2674;49.722;10.892;2022-11-15T00:41:04;6.60;99.90
5304;DHT22;2674;49.722;10.892;2022-11-15T00:43:31;6.60;99.90
5304;DHT22;2674;49.722;10.892;2022-11-15T00:45:57;6.60;99.90
5304;DHT22;2674;49.722;10.892;2022-11-15T00:48:23;6.50;99.90
5304;DHT22;2674;49.722;10.892;2022-11-15T00:50:49;6.50;99.90
5304;DHT22;2674;49.722;10.892;2022-11-15T00:53:16;6.40;99.90
5304;DHT22;2674;49.722;10.892;2022-11-15T00:55:42;6.60;99.90
5304;DHT22;2674;49.722;10.892;2022-11-15T00:58:08;6.40;99.90
5304;DHT22;2674;49.722;10.892;2022-11-15T01:00:34;6.40;99.90
5304;DHT22;2674;49.722;10.892;2022-11-15T01:03:01;6.30;99.90
5304;DHT22;2674;49.722;10.892;2022-11-15T01:05:27;6.30;99.90
5304;DHT22;2674;49.722;10.892;2022-11-15T01:07:57;6.30;99.90
5304;DHT22;2674;49.722;10.892;2022-11-15T01:10:23;6.30;99.90
5304;DHT22;2674;49.722;10.892;2022-11-15T01:12:49;6.30;99.90
5304;DHT22;2674;49.722;10.892;2022-11-15T01:15:15;6.30;99.90
5304;DHT22;2674;49.722;10.892;2022-11-15T01:17:41;6.40;99.90
5304;DHT22;2674;49.722;10.892;2022-11-15T01:20:08;6.50;99.90
5304;DHT22;2674;49.722;10.892;2022-11-15T01:22:34;6.50;99.90
5304;DHT22;2674;49.722;10.892;2022-11-15T01:25:00;6.50;99.90
5304;DHT22;2674;49.722;10.892;2022-11-15T01:27:26;6.50;99.90
5304;DHT22;2674;49.722;10.892;2022-11-15T01:29:51;6.50;99.90
5304;DHT22;2674;49.722;10.892;2022-11-15T01:32:17;6.50;99.90
5304;DHT22;2674;49.722;10.892;2022-11-15T01:34:43;6.50;99.90
5304;DHT22;2674;49.722;10.892;2022-11-15T01:37:09;6.50;99.90
5304;DHT22;2674;49.722;10.892;2022-11-15T01:39:35;6.60;99.90
5304;DHT22;2674;49.722;10.892;2022-11-15T01:42:01;6.60;99.90
5304;DHT22;2674;49.722;10.892;2022-11-15T01:44:48;6.70;99.90
5304;DHT22;2674;49.722;10.892;2022-11-15T01:47:56;6.80;99.90
5304;DHT22;2674;49.722;10.892;2022-11-15T01:50:10;6.90;99.90
5304;DHT22;2674;49.722;10.892;2022-11-15T01:52:38;7.00;99.90
5304;DHT22;2674;49.722;10.892;2022-11-15T01:55:14;7.00;99.90
5304;DHT22;2674;49.722;10.892;2022-11-15T01:57:42;7.00;99.90
5304;DHT22;2674;49.722;10.892;2022-11-15T02:00:09;7.10;99.90
5304;DHT22;2674;49.722;10.892;2022-11-15T02:02:36;7.10;99.90
5304;DHT22;2674;49.722;10.892;2022-11-15T02:05:03;7.10;99.90
5304;DHT22;2674;49.722;10.892;2022-11-15T02:07:30;7.10;99.90
5304;DHT22;2674;49.722;10.892;2022-11-15T02:10:02;7.10;99.90
5304;DHT22;2674;49.722;10.892;2022-11-15T02:12:29;7.00;99.90
5304;DHT22;2674;49.722;10.892;2022-11-15T02:14:56;7.00;99.90
5304;DHT22;2674;49.722;10.892;2022-11-15T02:42:14;7.30;99.90
5304;DHT22;2674;49.722;10.892;2022-11-15T02:45:06;7.40;99.90
5304;DHT22;2674;49.722;10.892;2022-11-15T02:47:37;7.50;99.90
5304;DHT22;2674;49.722;10.892;2022-11-15T02:50:09;7.50;99.90
5304;DHT22;2674;49.722;10.892;2022-11-15T02:52:35;7.60;99.90
5304;DHT22;2674;49.722;10.892;2022-11-15T02:55:01;7.70;99.90
5304;DHT22;2674;49.722;10.892;2022-11-15T03:00:06;7.70;99.90
5304;DHT22;2674;49.722;10.892;2022-11-15T03:07:57;7.70;99.90
5304;DHT22;2674;49.722;10.892;2022-11-15T03:16:15;7.60;99.90
5304;DHT22;2674;49.722;10.892;2022-11-15T03:18:45;7.60;99.90
5304;DHT22;2674;49.722;10.892;2022-11-15T03:21:14;7.60;99.90
5304;DHT22;2674;49.722;10.892;2022-11-15T03:23:41;7.60;99.90
5304;DHT22;2674;49.722;10.892;2022-11-15T03:26:11;7.60;99.90
5304;DHT22;2674;49.722;10.892;2022-11-15T03:28:54;7.60;99.90
5304;DHT22;2674;49.722;10.892;2022-11-15T03:31:22;7.60;99.90
5304;DHT22;2674;49.722;10.892;2022-11-15T03:34:37;7.50;99.90
5304;DHT22;2674;49.722;10.892;2022-11-15T03:37:01;7.50;99.90
5304;DHT22;2674;49.722;10.892;2022-11-15T03:39:28;7.50;99.90
5304;DHT22;2674;49.722;10.892;2022-11-15T03:47:29;7.50;99.90
5304;DHT22;2674;49.722;10.892;2022-11-15T03:50:01;7.50;99.90
5304;DHT22;2674;49.722;10.892;2022-11-15T03:52:32;7.50;99.90
5304;DHT22;2674;49.722;10.892;2022-11-15T03:55:01;7.50;99.90
5304;DHT22;2674;49.722;10.892;2022-11-15T03:57:27;7.40;99.90
5304;DHT22;2674;49.722;10.892;2022-11-15T03:59:54;7.30;99.90
5304;DHT22;2674;49.722;10.892;2022-11-15T04:02:20;7.30;99.90
5304;DHT22;2674;49.722;10.892;2022-11-15T04:04:45;7.20;99.90
5304;DHT22;2674;49.722;10.892;2022-11-15T04:07:12;7.20;99.90
5304;DHT22;2674;49.722;10.892;2022-11-15T04:09:38;7.10;99.90
5304;DHT22;2674;49.722;10.892;2022-11-15T04:12:23;7.00;99.90
5304;DHT22;2674;49.722;10.892;2022-11-15T04:15:07;7.00;99.90
5304;DHT22;2674;49.722;10.892;2022-11-15T04:17:35;6.90;99.90
5304;DHT22;2674;49.722;10.892;2022-11-15T04:20:06;6.80;99.90
5304;DHT22;2674;49.722;10.892;2022-11-15T04:22:58;6.70;99.90
5304;DHT22;2674;49.722;10.892;2022-11-15T04:25:43;6.70;99.90
5304;DHT22;2674;49.722;10.892;2022-11-15T04:28:10;6.60;99.90
5304;DHT22;2674;49.722;10.892;2022-11-15T04:30:37;6.60;99.90
5304;DHT22;2674;49.722;10.892;2022-11-15T04:33:03;6.60;99.90
5304;DHT22;2674;49.722;10.892;2022-11-15T04:35:29;6.50;99.90
5304;DHT22;2674;49.722;10.892;2022-11-15T04:37:56;6.50;99.90
5304;DHT22;2674;49.722;10.892;2022-11-15T04:40:22;6.40;99.90
5304;DHT22;2674;49.722;10.892;2022-11-15T04:42:48;6.50;99.90
5304;DHT22;2674;49.722;10.892;2022-11-15T04:45:14;6.50;99.90
5304;DHT22;2674;49.722;10.892;2022-11-15T04:47:43;6.60;99.90
5304;DHT22;2674;49.722;10.892;2022-11-15T04:50:09;6.60;99.90
5304;DHT22;2674;49.722;10.892;2022-11-15T04:52:38;6.70;99.90
5304;DHT22;2674;49.722;10.892;2022-11-15T04:55:04;6.70;99.90
5304;DHT22;2674;49.722;10.892;2022-11-15T04:57:30;6.70;99.90
5304;DHT22;2674;49.722;10.892;2022-11-15T04:59:56;6.70;99.90
5304;DHT22;2674;49.722;10.892;2022-11-15T05:02:21;6.70;99.90
5304;DHT22;2674;49.722;10.892;2022-11-15T05:04:47;6.60;99.90
5304;DHT22;2674;49.722;10.892;2022-11-15T05:07:13;6.60;99.90
5304;DHT22;2674;49.722;10.892;2022-11-15T05:09:39;6.60;99.90
5304;DHT22;2674;49.722;10.892;2022-11-15T05:12:05;6.60;99.90
5304;DHT22;2674;49.722;10.892;2022-11-15T05:14:31;6.60;99.90
5304;DHT22;2674;49.722;10.892;2022-11-15T05:16:57;6.60;99.90
5304;DHT22;2674;49.722;10.892;2022-11-15T05:19:23;6.50;99.90
5304;DHT22;2674;49.722;10.892;2022-11-15T05:21:49;6.50;99.90
5304;DHT22;2674;49.722;10.892;2022-11-15T05:24:15;6.50;99.90
5304;DHT22;2674;49.722;10.892;2022-11-15T05:26:41;6.50;99.90
5304;DHT22;2674;49.722;10.892;2022-11-15T05:29:08;6.40;99.90
5304;DHT22;2674;49.722;10.892;2022-11-15T05:31:39;6.40;99.90
5304;DHT22;2674;49.722;10.892;2022-11-15T05:34:06;6.40;99.90
5304;DHT22;2674;49.722;10.892;2022-11-15T05:36:43;6.40;99.90
5304;DHT22;2674;49.722;10.892;2022-11-15T05:39:10;6.40;99.90
5304;DHT22;2674;49.722;10.892;2022-11-15T05:41:41;6.40;99.90
5304;DHT22;2674;49.722;10.892;2022-11-15T05:44:10;6.40;99.90
5304;DHT22;2674;49.722;10.892;2022-11-15T05:46:38;6.40;99.90
5304;DHT22;2674;49.722;10.892;2022-11-15T05:49:07;6.30;99.90
5304;DHT22;2674;49.722;10.892;2022-11-15T05:51:35;6.30;99.90
5304;DHT22;2674;49.722;10.892;2022-11-15T05:54:01;6.30;99.90
5304;DHT22;2674;49.722;10.892;2022-11-15T05:56:28;6.20;99.90
5304;DHT22;2674;49.722;10.892;2022-11-15T05:58:56;6.30;99.90
5304;DHT22;2674;49.722;10.892;2022-11-15T06:01:23;6.40;99.90
5304;DHT22;2674;49.722;10.892;2022-11-15T06:03:51;6.40;99.90
5304;DHT22;2674;49.722;10.892;2022-11-15T06:06:19;6.40;99.90
5304;DHT22;2674;49.722;10.892;2022-11-15T06:08:45;6.50;99.90
5304;DHT22;2674;49.722;10.892;2022-11-15T06:11:11;6.50;99.90
5304;DHT22;2674;49.722;10.892;2022-11-15T06:13:37;6.50;99.90
5304;DHT22;2674;49.722;10.892;2022-11-15T06:16:03;6.60;99.90
5304;DHT22;2674;49.722;10.892;2022-11-15T06:18:32;6.60;99.90
5304;DHT22;2674;49.722;10.892;2022-11-15T06:20:59;6.50;99.90
5304;DHT22;2674;49.722;10.892;2022-11-15T06:23:25;6.50;99.90
5304;DHT22;2674;49.722;10.892;2022-11-15T06:25:51;6.40;99.90
5304;DHT22;2674;49.722;10.892;2022-11-15T06:28:17;6.30;99.90
5304;DHT22;2674;49.722;10.892;2022-11-15T06:30:43;6.30;99.90
5304;DHT22;2674;49.722;10.892;2022-11-15T06:33:09;6.20;99.90
5304;DHT22;2674;49.722;10.892;2022-11-15T06:35:35;6.10;99.90
5304;DHT22;2674;49.722;10.892;2022-11-15T06:38:06;6.00;99.90
5304;DHT22;2674;49.722;10.892;2022-11-15T06:40:34;6.00;99.90
5304;DHT22;2674;49.722;10.892;2022-11-15T06:43:00;5.90;99.90
5304;DHT22;2674;49.722;10.892;2022-11-15T06:45:26;5.80;99.90
5304;DHT22;2674;49.722;10.892;2022-11-15T06:47:53;5.80;99.90
5304;DHT22;2674;49.722;10.892;2022-11-15T06:50:19;5.70;99.90
5304;DHT22;2674;49.722;10.892;2022-11-15T06:52:45;5.60;99.90
5304;DHT22;2674;49.722;10.892;2022-11-15T06:55:11;5.60;99.90
5304;DHT22;2674;49.722;10.892;2022-11-15T06:57:37;5.60;99.90
5304;DHT22;2674;49.722;10.892;2022-11-15T07:00:06;5.50;99.90
5304;DHT22;2674;49.722;10.892;2022-11-15T07:02:32;5.60;99.90
5304;DHT22;2674;49.722;10.892;2022-11-15T07:04:58;5.60;99.90
5304;DHT22;2674;49.722;10.892;2022-11-15T07:07:24;5.60;99.90
5304;DHT22;2674;49.722;10.892;2022-11-15T07:09:50;5.70;99.90
5304;DHT22;2674;49.722;10.892;2022-11-15T07:12:16;5.80;99.90
5304;DHT22;2674;49.722;10.892;2022-11-15T07:14:41;5.90;99.90
5304;DHT22;2674;49.722;10.892;2022-11-15T07:17:07;6.00;99.90
5304;DHT22;2674;49.722;10.892;2022-11-15T07:19:33;6.10;99.90
5304;DHT22;2674;49.722;10.892;2022-11-15T07:21:59;6.20;99.90
5304;DHT22;2674;49.722;10.892;2022-11-15T07:24:25;6.20;99.90
5304;DHT22;2674;49.722;10.892;2022-11-15T07:26:51;6.20;99.90
5304;DHT22;2674;49.722;10.892;2022-11-15T07:29:16;6.20;99.90
5304;DHT22;2674;49.722;10.892;2022-11-15T07:31:42;6.30;99.90
5304;DHT22;2674;49.722;10.892;2022-11-15T07:34:08;6.30;99.90
5304;DHT22;2674;49.722;10.892;2022-11-15T07:36:35;6.30;99.90
5304;DHT22;2674;49.722;10.892;2022-11-15T07:47:00;6.50;99.90
5304;DHT22;2674;49.722;10.892;2022-11-15T07:49:26;6.60;99.90
5304;DHT22;2674;49.722;10.892;2022-11-15T07:51:52;6.60;99.90
5304;DHT22;2674;49.722;10.892;2022-11-15T07:54:18;6.70;99.90
5304;DHT22;2674;49.722;10.892;2022-11-15T07:56:44;6.70;99.90
5304;DHT22;2674;49.722;10.892;2022-11-15T07:59:10;6.80;99.90
5304;DHT22;2674;49.722;10.892;2022-11-15T08:01:35;6.80;99.90
5304;DHT22;2674;49.722;10.892;2022-11-15T08:04:01;6.90;99.90
5304;DHT22;2674;49.722;10.892;2022-11-15T08:06:49;6.90;99.90
5304;DHT22;2674;49.722;10.892;2022-11-15T08:09:15;6.90;99.90
5304;DHT22;2674;49.722;10.892;2022-11-15T08:11:41;6.90;99.90
5304;DHT22;2674;49.722;10.892;2022-11-15T08:14:06;6.90;99.90
5304;DHT22;2674;49.722;10.892;2022-11-15T08:16:32;6.90;99.90
5304;DHT22;2674;49.722;10.892;2022-11-15T08:18:58;7.00;99.90
5304;DHT22;2674;49.722;10.892;2022-11-15T08:21:24;7.00;99.90
5304;DHT22;2674;49.722;10.892;2022-11-15T08:23:50;7.10;99.90
5304;DHT22;2674;49.722;10.892;2022-11-15T08:26:17;7.10;99.90
5304;DHT22;2674;49.722;10.892;2022-11-15T08:28:43;7.20;99.90
5304;DHT22;2674;49.722;10.892;2022-11-15T08:31:17;7.20;99.90
5304;DHT22;2674;49.722;10.892;2022-11-15T08:33:43;7.30;99.90
5304;DHT22;2674;49.722;10.892;2022-11-15T08:36:14;7.30;99.90
5304;DHT22;2674;49.722;10.892;2022-11-15T08:38:40;7.40;99.90
5304;DHT22;2674;49.722;10.892;2022-11-15T08:41:07;7.60;99.90
5304;DHT22;2674;49.722;10.892;2022-11-15T08:43:35;7.90;99.90
5304;DHT22;2674;49.722;10.892;2022-11-15T08:46:01;8.20;99.90
5304;DHT22;2674;49.722;10.892;2022-11-15T08:48:27;8.50;99.90
5304;DHT22;2674;49.722;10.892;2022-11-15T08:50:54;8.50;99.90
5304;DHT22;2674;49.722;10.892;2022-11-15T08:53:21;8.50;99.90
5304;DHT22;2674;49.722;10.892;2022-11-15T08:55:47;8.40;99.90
5304;DHT22;2674;49.722;10.892;2022-11-15T08:58:13;8.40;99.90
5304;DHT22;2674;49.722;10.892;2022-11-15T09:00:39;8.40;99.90
5304;DHT22;2674;49.722;10.892;2022-11-15T09:03:06;8.50;99.90
5304;DHT22;2674;49.722;10.892;2022-11-15T09:05:32;8.40;99.90
5304;DHT22;2674;49.722;10.892;2022-11-15T09:08:01;8.50;99.90
5304;DHT22;2674;49.722;10.892;2022-11-15T09:10:26;8.50;99.90
5304;DHT22;2674;49.722;10.892;2022-11-15T09:12:52;8.60;99.90
5304;DHT22;2674;49.722;10.892;2022-11-15T09:15:18;8.60;99.90
5304;DHT22;2674;49.722;10.892;2022-11-15T09:17:45;8.70;99.90
5304;DHT22;2674;49.722;10.892;2022-11-15T09:20:11;8.80;99.90
5304;DHT22;2674;49.722;10.892;2022-11-15T09:22:37;8.80;99.90
5304;DHT22;2674;49.722;10.892;2022-11-15T09:25:04;8.90;99.90
5304;DHT22;2674;49.722;10.892;2022-11-15T09:27:31;9.00;99.90
5304;DHT22;2674;49.722;10.892;2022-11-15T09:29:57;9.00;99.90
5304;DHT22;2674;49.722;10.892;2022-11-15T09:32:23;9.10;99.90
5304;DHT22;2674;49.722;10.892;2022-11-15T09:34:52;9.10;99.90
5304;DHT22;2674;49.722;10.892;2022-11-15T09:37:18;9.20;99.90
5304;DHT22;2674;49.722;10.892;2022-11-15T09:39:43;9.30;99.90
5304;DHT22;2674;49.722;10.892;2022-11-15T09:42:31;9.40;99.90
5304;DHT22;2674;49.722;10.892;2022-11-15T09:45:22;9.50;99.90
5304;DHT22;2674;49.722;10.892;2022-11-15T09:50:49;9.70;99.90
5304;DHT22;2674;49.722;10.892;2022-11-15T09:53:40;9.80;99.90
5304;DHT22;2674;49.722;10.892;2022-11-15T09:56:20;10.00;99.90
5304;DHT22;2674;49.722;10.892;2022-11-15T10:04:22;10.40;99.90
5304;DHT22;2674;49.722;10.892;2022-11-15T10:07:06;10.50;99.90
5304;DHT22;2674;49.722;10.892;2022-11-15T10:09:43;10.60;99.90
5304;DHT22;2674;49.722;10.892;2022-11-15T10:12:13;10.60;99.90
5304;DHT22;2674;49.722;10.892;2022-11-15T10:14:39;10.70;99.90
5304;DHT22;2674;49.722;10.892;2022-11-15T10:20:20;10.90;99.90
5304;DHT22;2674;49.722;10.892;2022-11-15T10:23:00;11.00;99.90
5304;DHT22;2674;49.722;10.892;2022-11-15T10:25:34;11.10;99.90
5304;DHT22;2674;49.722;10.892;2022-11-15T10:28:28;11.20;99.90
5304;DHT22;2674;49.722;10.892;2022-11-15T10:30:59;11.30;99.90
5304;DHT22;2674;49.722;10.892;2022-11-15T10:43:44;11.60;99.90
5304;DHT22;2674;49.722;10.892;2022-11-15T10:46:20;11.70;99.90
5304;DHT22;2674;49.722;10.892;2022-11-15T10:48:46;11.80;99.90
5304;DHT22;2674;49.722;10.892;2022-11-15T10:51:28;11.80;99.90
5304;DHT22;2674;49.722;10.892;2022-11-15T10:53:56;11.80;99.90
5304;DHT22;2674;49.722;10.892;2022-11-15T10:56:25;11.90;99.90
5304;DHT22;2674;49.722;10.892;2022-11-15T10:58:54;11.90;99.90
5304;DHT22;2674;49.722;10.892;2022-11-15T11:01:26;12.00;99.90
5304;DHT22;2674;49.722;10.892;2022-11-15T11:04:07;12.00;99.90
5304;DHT22;2674;49.722;10.892;2022-11-15T11:09:23;12.20;99.90
5304;DHT22;2674;49.722;10.892;2022-11-15T11:11:52;12.30;99.90
5304;DHT22;2674;49.722;10.892;2022-11-15T11:14:23;12.30;99.90
5304;DHT22;2674;49.722;10.892;2022-11-15T11:20:13;12.50;99.90
5304;DHT22;2674;49.722;10.892;2022-11-15T11:26:01;12.80;99.90
5304;DHT22;2674;49.722;10.892;2022-11-15T11:47:23;13.40;99.90
5304;DHT22;2674;49.722;10.892;2022-11-15T11:50:21;13.50;99.90
5304;DHT22;2674;49.722;10.892;2022-11-15T11:55:46;13.60;99.90
5304;DHT22;2674;49.722;10.892;2022-11-15T12:00:56;13.60;99.90
5304;DHT22;2674;49.722;10.892;2022-11-15T12:03:37;13.60;99.90
5304;DHT22;2674;49.722;10.892;2022-11-15T12:09:22;13.70;99.90
5304;DHT22;2674;49.722;10.892;2022-11-15T12:19:45;13.50;99.90
5304;DHT22;2674;49.722;10.892;2022-11-15T12:30:00;13.30;99.90
5304;DHT22;2674;49.722;10.892;2022-11-15T12:32:36;13.20;99.90
5304;DHT22;2674;49.722;10.892;2022-11-15T12:45:40;13.10;99.90
5304;DHT22;2674;49.722;10.892;2022-11-15T12:58:57;13.30;99.90
5304;DHT22;2674;49.722;10.892;2022-11-15T13:06:49;13.30;99.90
5304;DHT22;2674;49.722;10.892;2022-11-15T13:12:02;13.20;99.90
5304;DHT22;2674;49.722;10.892;2022-11-15T13:17:27;13.20;99.90
5304;DHT22;2674;49.722;10.892;2022-11-15T13:26:00;13.10;99.90
5304;DHT22;2674;49.722;10.892;2022-11-15T13:31:29;13.10;99.90
5304;DHT22;2674;49.722;10.892;2022-11-15T13:34:26;13.10;99.90
5304;DHT22;2674;49.722;10.892;2022-11-15T13:36:53;13.10;99.90
5304;DHT22;2674;49.722;10.892;2022-11-15T13:39:31;13.10;99.90
5304;DHT22;2674;49.722;10.892;2022-11-15T13:41:58;13.10;99.90
5304;DHT22;2674;49.722;10.892;2022-11-15T13:44:30;13.10;99.90
5304;DHT22;2674;49.722;10.892;2022-11-15T13:49:33;13.20;99.90
5304;DHT22;2674;49.722;10.892;2022-11-15T13:52:01;13.30;99.90
5304;DHT22;2674;49.722;10.892;2022-11-15T13:54:54;13.30;99.90
5304;DHT22;2674;49.722;10.892;2022-11-15T13:57:41;13.40;99.90
5304;DHT22;2674;49.722;10.892;2022-11-15T14:00:34;13.50;99.90
5304;DHT22;2674;49.722;10.892;2022-11-15T14:03:18;13.60;99.40
5304;DHT22;2674;49.722;10.892;2022-11-15T14:06:05;13.70;98.60
5304;DHT22;2674;49.722;10.892;2022-11-15T14:08:38;13.70;97.20
5304;DHT22;2674;49.722;10.892;2022-11-15T14:11:19;13.60;97.20
5304;DHT22;2674;49.722;10.892;2022-11-15T14:16:35;13.40;99.90
5304;DHT22;2674;49.722;10.892;2022-11-15T14:19:03;13.30;99.90
5304;DHT22;2674;49.722;10.892;2022-11-15T14:21:29;13.20;99.90
5304;DHT22;2674;49.722;10.892;2022-11-15T14:24:15;13.20;99.90
5304;DHT22;2674;49.722;10.892;2022-11-15T14:26:42;13.20;99.90
5304;DHT22;2674;49.722;10.892;2022-11-15T14:29:27;13.20;99.90
5304;DHT22;2674;49.722;10.892;2022-11-15T14:35:00;13.10;99.90
5304;DHT22;2674;49.722;10.892;2022-11-15T14:37:29;13.10;99.90
5304;DHT22;2674;49.722;10.892;2022-11-15T14:39:58;13.00;99.90
5304;DHT22;2674;49.722;10.892;2022-11-15T14:42:25;13.00;99.90
5304;DHT22;2674;49.722;10.892;2022-11-15T14:44:51;12.90;99.90
5304;DHT22;2674;49.722;10.892;2022-11-15T14:47:17;12.80;99.90
5304;DHT22;2674;49.722;10.892;2022-11-15T14:49:44;12.70;99.90
5304;DHT22;2674;49.722;10.892;2022-11-15T14:52:28;12.60;99.90
5304;DHT22;2674;49.722;10.892;2022-11-15T14:54:56;12.50;99.90
5304;DHT22;2674;49.722;10.892;2022-11-15T14:57:23;12.40;99.90
5304;DHT22;2674;49.722;10.892;2022-11-15T14:59:49;12.30;99.90
5304;DHT22;2674;49.722;10.892;2022-11-15T15:02:18;12.10;99.90
5304;DHT22;2674;49.722;10.892;2022-11-15T15:04:45;12.10;99.90
5304;DHT22;2674;49.722;10.892;2022-11-15T15:07:11;11.90;99.90
5304;DHT22;2674;49.722;10.892;2022-11-15T15:09:37;11.80;99.90
5304;DHT22;2674;49.722;10.892;2022-11-15T15:12:04;11.70;99.90
5304;DHT22;2674;49.722;10.892;2022-11-15T15:14:30;11.60;99.90
5304;DHT22;2674;49.722;10.892;2022-11-15T15:16:56;11.40;99.90
5304;DHT22;2674;49.722;10.892;2022-11-15T15:19:22;11.40;99.90
5304;DHT22;2674;49.722;10.892;2022-11-15T15:21:50;11.30;99.90
5304;DHT22;2674;49.722;10.892;2022-11-15T15:24:16;11.20;99.90
5304;DHT22;2674;49.722;10.892;2022-11-15T15:26:42;11.20;99.90
5304;DHT22;2674;49.722;10.892;2022-11-15T15:29:09;11.20;99.90
5304;DHT22;2674;49.722;10.892;2022-11-15T15:31:35;11.20;99.90
5304;DHT22;2674;49.722;10.892;2022-11-15T15:34:01;11.10;99.90
5304;DHT22;2674;49.722;10.892;2022-11-15T15:36:27;10.90;99.90
5304;DHT22;2674;49.722;10.892;2022-11-15T15:38:53;10.80;99.90
5304;DHT22;2674;49.722;10.892;2022-11-15T15:41:19;10.70;99.90
5304;DHT22;2674;49.722;10.892;2022-11-15T15:43:45;10.50;99.90
5304;DHT22;2674;49.722;10.892;2022-11-15T15:46:15;10.40;99.90
5304;DHT22;2674;49.722;10.892;2022-11-15T15:48:43;10.40;99.90
5304;DHT22;2674;49.722;10.892;2022-11-15T15:56:14;10.30;99.90
5304;DHT22;2674;49.722;10.892;2022-11-15T15:58:40;10.30;99.90
5304;DHT22;2674;49.722;10.892;2022-11-15T16:01:06;10.30;99.90
5304;DHT22;2674;49.722;10.892;2022-11-15T16:03:32;10.30;99.90
5304;DHT22;2674;49.722;10.892;2022-11-15T16:05:58;10.30;99.90
5304;DHT22;2674;49.722;10.892;2022-11-15T16:08:24;10.30;99.90
5304;DHT22;2674;49.722;10.892;2022-11-15T16:10:53;10.30;99.90
5304;DHT22;2674;49.722;10.892;2022-11-15T16:13:18;10.20;99.90
5304;DHT22;2674;49.722;10.892;2022-11-15T16:15:52;10.30;99.90
5304;DHT22;2674;49.722;10.892;2022-11-15T16:18:18;10.20;99.90
5304;DHT22;2674;49.722;10.892;2022-11-15T16:20:46;10.30;99.90
5304;DHT22;2674;49.722;10.892;2022-11-15T16:23:16;10.30;99.90
5304;DHT22;2674;49.722;10.892;2022-11-15T16:25:46;10.20;99.90
5304;DHT22;2674;49.722;10.892;2022-11-15T16:31:03;10.10;99.90
5304;DHT22;2674;49.722;10.892;2022-11-15T16:33:30;10.10;99.90
5304;DHT22;2674;49.722;10.892;2022-11-15T16:35:56;10.00;99.90
5304;DHT22;2674;49.722;10.892;2022-11-15T16:38:22;9.90;99.90
5304;DHT22;2674;49.722;10.892;2022-11-15T16:40:48;9.90;99.90
5304;DHT22;2674;49.722;10.892;2022-11-15T16:43:14;9.80;99.90
5304;DHT22;2674;49.722;10.892;2022-11-15T16:45:39;9.80;99.90
5304;DHT22;2674;49.722;10.892;2022-11-15T16:48:05;9.80;99.90
5304;DHT22;2674;49.722;10.892;2022-11-15T16:50:33;9.90;99.90
5304;DHT22;2674;49.722;10.892;2022-11-15T16:53:05;9.90;99.90
5304;DHT22;2674;49.722;10.892;2022-11-15T16:55:31;10.00;99.90
5304;DHT22;2674;49.722;10.892;2022-11-15T16:57:57;10.10;99.90
5304;DHT22;2674;49.722;10.892;2022-11-15T17:00:24;10.20;99.90
5304;DHT22;2674;49.722;10.892;2022-11-15T17:02:50;10.20;99.90
5304;DHT22;2674;49.722;10.892;2022-11-15T17:05:19;10.20;99.90
5304;DHT22;2674;49.722;10.892;2022-11-15T17:07:54;10.30;99.90
5304;DHT22;2674;49.722;10.892;2022-11-15T17:10:22;10.30;99.90
5304;DHT22;2674;49.722;10.892;2022-11-15T17:12:49;10.30;99.90
5304;DHT22;2674;49.722;10.892;2022-11-15T17:15:15;10.30;99.90
5304;DHT22;2674;49.722;10.892;2022-11-15T17:17:41;10.30;99.90
5304;DHT22;2674;49.722;10.892;2022-11-15T17:20:15;10.30;99.90
5304;DHT22;2674;49.722;10.892;2022-11-15T17:22:42;10.30;99.90
5304;DHT22;2674;49.722;10.892;2022-11-15T17:25:08;10.30;99.90
5304;DHT22;2674;49.722;10.892;2022-11-15T17:27:34;10.30;99.90
5304;DHT22;2674;49.722;10.892;2022-11-15T17:30:00;10.30;99.90
5304;DHT22;2674;49.722;10.892;2022-11-15T17:32:26;10.30;99.90
5304;DHT22;2674;49.722;10.892;2022-11-15T17:34:52;10.30;99.90
5304;DHT22;2674;49.722;10.892;2022-11-15T17:37:18;10.30;99.90
5304;DHT22;2674;49.722;10.892;2022-11-15T17:39:43;10.20;99.90
5304;DHT22;2674;49.722;10.892;2022-11-15T17:42:09;10.20;99.90
5304;DHT22;2674;49.722;10.892;2022-11-15T17:44:35;10.20;99.90
5304;DHT22;2674;49.722;10.892;2022-11-15T17:47:01;10.20;99.90
5304;DHT22;2674;49.722;10.892;2022-11-15T17:49:27;10.10;99.90
5304;DHT22;2674;49.722;10.892;2022-11-15T17:51:53;10.10;99.90
5304;DHT22;2674;49.722;10.892;2022-11-15T17:54:19;10.10;99.90
5304;DHT22;2674;49.722;10.892;2022-11-15T17:56:45;10.20;99.90
5304;DHT22;2674;49.722;10.892;2022-11-15T17:59:11;10.20;99.90
5304;DHT22;2674;49.722;10.892;2022-11-15T18:01:37;10.20;99.90
5304;DHT22;2674;49.722;10.892;2022-11-15T18:04:06;10.20;99.90
5304;DHT22;2674;49.722;10.892;2022-11-15T18:06:33;10.30;99.90
5304;DHT22;2674;49.722;10.892;2022-11-15T18:09:00;10.30;99.90
5304;DHT22;2674;49.722;10.892;2022-11-15T18:11:32;10.40;99.90
5304;DHT22;2674;49.722;10.892;2022-11-15T18:14:04;10.30;99.90
5304;DHT22;2674;49.722;10.892;2022-11-15T18:16:32;10.40;99.90
5304;DHT22;2674;49.722;10.892;2022-11-15T18:18:59;10.40;99.90
5304;DHT22;2674;49.722;10.892;2022-11-15T18:21:30;10.50;99.90
5304;DHT22;2674;49.722;10.892;2022-11-15T18:23:57;10.40;99.90
5304;DHT22;2674;49.722;10.892;2022-11-15T18:26:25;10.40;99.90
5304;DHT22;2674;49.722;10.892;2022-11-15T18:28:56;10.50;99.90
5304;DHT22;2674;49.722;10.892;2022-11-15T18:31:27;10.40;99.90
5304;DHT22;2674;49.722;10.892;2022-11-15T18:33:54;10.30;99.90
5304;DHT22;2674;49.722;10.892;2022-11-15T18:36:26;10.30;99.90
5304;DHT22;2674;49.722;10.892;2022-11-15T18:38:56;10.30;99.90
5304;DHT22;2674;49.722;10.892;2022-11-15T18:41:23;10.30;99.90
5304;DHT22;2674;49.722;10.892;2022-11-15T18:43:53;10.30;99.90
5304;DHT22;2674;49.722;10.892;2022-11-15T18:46:21;10.20;99.90
5304;DHT22;2674;49.722;10.892;2022-11-15T18:48:48;10.20;99.90
5304;DHT22;2674;49.722;10.892;2022-11-15T18:51:22;10.30;99.90
5304;DHT22;2674;49.722;10.892;2022-11-15T18:53:52;10.30;99.90
5304;DHT22;2674;49.722;10.892;2022-11-15T18:56:22;10.20;99.90
5304;DHT22;2674;49.722;10.892;2022-11-15T18:58:52;10.10;99.90
5304;DHT22;2674;49.722;10.892;2022-11-15T19:01:23;10.10;99.90
5304;DHT22;2674;49.722;10.892;2022-11-15T19:03:52;10.00;99.90
5304;DHT22;2674;49.722;10.892;2022-11-15T19:06:20;9.90;99.90
5304;DHT22;2674;49.722;10.892;2022-11-15T19:08:49;9.90;99.90
5304;DHT22;2674;49.722;10.892;2022-11-15T19:11:21;9.80;99.90